Time;durP1;ratioP1;P1;durP2;ratioP2;P2;SDS_P1;SDS_P2;PMS_P1;PMS_P2;Temp;Humidity;BMP_temperature;BMP_pressure;BME280_temperature;BME280_humidity;BME280_pressure;Samples;Min_cycle;Max_cycle;Signal;HPM_P1;HPM_P2
2023/09/10 00:01:10;;;;;;;5.80;4.00;;;16.10;97.90;16.10;100747.00;;;;4991933;27;109172;-66
2023/09/10 00:03:37;;;;;;;7.07;4.45;;;16.10;98.10;16.10;100747.00;;;;4988662;27;116979;-66
2023/09/10 00:06:05;;;;;;;5.15;4.05;;;16.10;98.30;16.10;100746.00;;;;4991475;27;87993;-67
2023/09/10 00:08:32;;;;;;;4.68;3.95;;;16.10;98.50;16.10;100741.00;;;;4990164;27;87841;-66
2023/09/10 00:10:58;;;;;;;6.05;3.90;;;16.00;98.60;16.00;100753.00;;;;4990987;28;89145;-67
2023/09/10 00:13:25;;;;;;;3.90;3.08;;;16.00;98.80;16.00;100742.00;;;;4998456;27;88007;-66
2023/09/10 00:15:52;;;;;;;4.75;3.50;;;16.00;99.00;16.00;100743.00;;;;4988838;27;88637;-68
2023/09/10 00:18:19;;;;;;;5.50;3.42;;;15.90;99.10;16.00;100743.00;;;;4994457;27;89004;-67
2023/09/10 00:20:45;;;;;;;5.68;3.53;;;15.90;99.10;16.00;100747.00;;;;4990011;27;100901;-66
2023/09/10 00:23:11;;;;;;;4.35;3.35;;;16.00;99.30;16.00;100746.00;;;;4993665;27;107367;-67
2023/09/10 00:25:36;;;;;;;5.53;3.55;;;15.90;99.30;15.90;100742.00;;;;4993455;27;88994;-67
2023/09/10 00:28:03;;;;;;;8.13;4.53;;;15.90;99.50;15.90;100734.00;;;;4991549;27;111000;-66
2023/09/10 00:30:28;;;;;;;5.07;4.15;;;15.90;99.60;15.90;100739.00;;;;4999892;28;87930;-68
2023/09/10 00:32:55;;;;;;;5.13;3.65;;;15.80;99.70;15.90;100731.00;;;;4995256;27;117562;-66
2023/09/10 00:35:20;;;;;;;5.47;3.55;;;15.80;99.90;15.80;100735.00;;;;4991248;27;116740;-67
2023/09/10 00:37:46;;;;;;;6.80;4.03;;;15.80;99.90;15.80;100729.00;;;;4996223;27;107865;-67
2023/09/10 00:40:12;;;;;;;6.40;4.20;;;15.70;99.90;15.80;100733.00;;;;4991193;27;107780;-67
2023/09/10 00:42:38;;;;;;;4.05;3.72;;;15.70;99.90;15.80;100728.00;;;;4992295;28;90262;-67
2023/09/10 00:45:10;;;;;;;6.85;3.65;;;15.70;99.90;15.70;100733.00;;;;4992364;27;108945;-66
2023/09/10 00:47:41;;;;;;;6.05;3.75;;;15.70;99.90;15.70;100732.00;;;;4995967;27;102954;-66
2023/09/10 00:50:09;;;;;;;6.65;3.63;;;15.70;99.90;15.70;100735.00;;;;4995322;27;88238;-66
2023/09/10 00:52:38;;;;;;;4.75;3.50;;;15.60;99.90;15.60;100729.00;;;;4974991;28;88746;-66
2023/09/10 00:55:05;;;;;;;5.45;4.13;;;15.60;99.90;15.60;100732.00;;;;4987842;27;103789;-67
2023/09/10 00:57:31;;;;;;;5.10;3.85;;;15.50;99.90;15.60;100742.00;;;;4992726;27;102687;-66
2023/09/10 00:59:58;;;;;;;5.70;4.50;;;15.60;99.90;15.50;100736.00;;;;4996734;28;108067;-67
2023/09/10 01:02:24;;;;;;;4.22;3.78;;;15.50;99.90;15.50;100733.00;;;;4989274;27;117407;-67
2023/09/10 01:04:50;;;;;;;5.70;4.50;;;15.50;99.90;15.40;100727.00;;;;4996933;28;88909;-67
2023/09/10 01:07:16;;;;;;;5.75;4.47;;;15.40;99.90;15.40;100726.00;;;;4994973;28;88984;-66
2023/09/10 01:09:42;;;;;;;6.13;4.95;;;15.40;99.90;15.40;100717.00;;;;4996166;27;108049;-66
2023/09/10 01:12:27;;;;;;;5.78;3.97;;;15.30;99.90;15.30;100723.00;;;;4995453;27;89749;-66
2023/09/10 01:15:08;;;;;;;4.60;3.80;;;15.30;99.90;15.30;100724.00;;;;4979133;27;102233;-66
2023/09/10 01:18:17;;;;;;;6.13;3.78;;;15.30;99.90;15.20;100726.00;;;;4973309;28;89480;-66
2023/09/10 01:21:13;;;;;;;5.47;4.05;;;15.20;99.90;15.10;100731.00;;;;4992321;27;87664;-66
2023/09/10 01:24:04;;;;;;;5.15;4.13;;;15.10;99.90;15.10;100732.00;;;;4990325;27;87929;-66
2023/09/10 01:26:29;;;;;;;4.78;4.25;;;15.10;99.90;15.10;100734.00;;;;4971071;27;107534;-65
2023/09/10 01:28:55;;;;;;;5.95;4.40;;;15.00;99.90;15.00;100733.00;;;;4993227;27;108299;-67
2023/09/10 01:31:21;;;;;;;3.75;3.35;;;15.00;99.90;14.90;100727.00;;;;4993297;28;108123;-66
2023/09/10 01:33:52;;;;;;;6.60;4.10;;;14.20;99.90;14.90;100729.00;;;;4992711;28;118449;-66
2023/09/10 01:36:38;;;;;;;4.90;3.65;;;14.90;99.90;14.80;100735.00;;;;4977689;27;89200;-66
2023/09/10 01:39:17;;;;;;;4.40;3.78;;;14.80;99.90;14.80;100726.00;;;;4974520;27;87895;-66
2023/09/10 01:41:46;;;;;;;6.63;4.13;;;14.80;99.90;14.80;100731.00;;;;4974703;28;95978;-66
2023/09/10 01:44:15;;;;;;;8.60;4.78;;;14.80;99.90;14.80;100737.00;;;;4972136;28;88976;-67
2023/09/10 01:46:41;;;;;;;5.07;4.63;;;14.70;99.90;14.80;100730.00;;;;4989875;27;87877;-66
2023/09/10 01:49:08;;;;;;;6.20;4.70;;;14.70;99.90;14.70;100734.00;;;;4989940;27;108923;-66
2023/09/10 01:51:33;;;;;;;5.30;4.30;;;14.70;99.90;14.70;100736.00;;;;4994206;28;87067;-66
2023/09/10 01:53:59;;;;;;;5.57;3.92;;;14.70;99.90;14.70;100732.00;;;;4992967;27;118578;-67
2023/09/10 01:56:25;;;;;;;5.38;3.95;;;14.70;99.90;14.70;100730.00;;;;4991464;27;88179;-67
2023/09/10 01:58:50;;;;;;;6.30;4.00;;;14.60;99.90;14.70;100733.00;;;;4993239;28;88973;-66
2023/09/10 02:01:22;;;;;;;5.88;3.90;;;14.60;99.90;14.60;100733.00;;;;4991888;27;108794;-66
2023/09/10 02:03:48;;;;;;;6.15;4.03;;;14.60;99.90;14.60;100725.00;;;;4972804;28;88394;-66
2023/09/10 02:06:16;;;;;;;9.52;5.10;;;14.60;99.90;14.60;100731.00;;;;4989280;27;118086;-66
2023/09/10 02:08:42;;;;;;;5.20;3.72;;;14.50;99.90;14.60;100739.00;;;;4991867;28;88033;-66
2023/09/10 02:11:08;;;;;;;7.55;4.75;;;14.50;99.90;14.60;100731.00;;;;4990052;28;109081;-66
2023/09/10 02:13:34;;;;;;;6.68;4.47;;;14.50;99.90;14.60;100729.00;;;;4994969;28;89830;-66
2023/09/10 02:15:59;;;;;;;3.83;3.17;;;14.60;99.90;14.60;100736.00;;;;4995788;27;88643;-66
2023/09/10 02:18:28;;;;;;;6.15;4.50;;;14.50;99.90;14.60;100728.00;;;;4994302;27;109710;-66
2023/09/10 02:20:53;;;;;;;3.95;3.60;;;14.50;99.90;14.60;100733.00;;;;4994932;27;87766;-67
2023/09/10 02:23:20;;;;;;;5.97;4.05;;;14.50;99.90;14.60;100735.00;;;;4991573;27;118870;-66
2023/09/10 02:25:46;;;;;;;6.60;4.20;;;14.70;99.90;14.60;100734.00;;;;4990622;27;88990;-66
2023/09/10 02:28:11;;;;;;;5.53;4.57;;;14.50;99.90;14.60;100740.00;;;;4994864;27;108821;-67
2023/09/10 02:30:37;;;;;;;4.00;3.58;;;14.50;99.90;14.50;100739.00;;;;4995958;27;106922;-66
2023/09/10 02:33:03;;;;;;;6.40;3.80;;;14.50;99.90;14.50;100740.00;;;;4957805;28;117976;-66
2023/09/10 02:35:28;;;;;;;4.53;3.67;;;14.50;99.90;14.50;100739.00;;;;4991408;27;105284;-66
2023/09/10 02:37:54;;;;;;;4.67;4.17;;;14.50;99.90;14.50;100732.00;;;;4993839;27;111055;-67
2023/09/10 02:40:20;;;;;;;6.07;4.00;;;14.50;99.90;14.50;100741.00;;;;4991454;27;108998;-67
2023/09/10 02:42:45;;;;;;;6.13;4.28;;;14.50;99.90;14.50;100741.00;;;;4987103;27;89029;-67
2023/09/10 02:45:12;;;;;;;4.88;4.05;;;14.40;99.90;14.40;100739.00;;;;4992541;27;104580;-67
2023/09/10 02:47:37;;;;;;;6.25;3.90;;;14.40;99.90;14.40;100739.00;;;;4989712;27;89852;-67
2023/09/10 02:50:05;;;;;;;4.88;3.60;;;14.40;99.90;14.30;100740.00;;;;4992112;27;106503;-66
2023/09/10 02:52:30;;;;;;;5.60;4.27;;;14.40;99.90;14.30;100740.00;;;;4992977;28;88614;-66
2023/09/10 02:54:57;;;;;;;9.98;5.05;;;14.30;99.90;14.30;100745.00;;;;4989989;27;89465;-66
2023/09/10 02:57:22;;;;;;;5.03;4.33;;;14.30;99.90;14.20;100748.00;;;;4981627;27;102132;-66
2023/09/10 02:59:48;;;;;;;7.93;4.30;;;14.20;99.90;14.20;100740.00;;;;4991072;27;108985;-66
2023/09/10 03:02:14;;;;;;;5.03;4.00;;;14.20;99.90;14.20;100749.00;;;;4991691;27;115754;-66
2023/09/10 03:04:42;;;;;;;8.63;5.17;;;14.10;99.90;14.10;100734.00;;;;4989963;28;116708;-67
2023/09/10 03:07:08;;;;;;;8.77;4.83;;;14.10;99.90;14.10;100739.00;;;;4989814;27;109938;-67
2023/09/10 03:09:34;;;;;;;4.47;4.07;;;14.10;99.90;14.00;100734.00;;;;4992150;27;108604;-67
2023/09/10 03:12:28;;;;;;;7.07;4.40;;;14.00;99.90;14.00;100738.00;;;;4987957;27;119235;-67
2023/09/10 03:14:54;;;;;;;7.50;4.67;;;14.00;99.90;14.00;100738.00;;;;4990769;27;88070;-67
2023/09/10 03:17:21;;;;;;;5.43;4.07;;;14.00;99.90;13.90;100733.00;;;;4989689;27;90782;-66
2023/09/10 03:19:47;;;;;;;4.83;4.23;;;13.90;99.90;13.90;100735.00;;;;4991351;28;87901;-67
2023/09/10 03:22:13;;;;;;;5.40;4.83;;;13.90;99.90;13.90;100732.00;;;;4988528;28;94123;-67
2023/09/10 03:24:39;;;;;;;4.90;3.63;;;13.90;99.90;13.90;100733.00;;;;4989363;28;101777;-66
2023/09/10 03:27:05;;;;;;;3.77;3.43;;;13.90;99.90;13.90;100742.00;;;;4994127;28;87944;-67
2023/09/10 03:29:34;;;;;;;4.43;3.80;;;13.70;99.90;13.90;100737.00;;;;4992982;27;101045;-66
2023/09/10 03:32:06;;;;;;;3.30;3.00;;;13.90;99.90;13.90;100736.00;;;;4993331;27;89107;-66
2023/09/10 03:34:32;;;;;;;4.03;3.60;;;13.90;99.90;13.80;100734.00;;;;4988764;28;89017;-66
2023/09/10 03:36:58;;;;;;;5.77;4.83;;;13.80;99.90;13.80;100742.00;;;;4992924;28;102613;-67
2023/09/10 03:39:24;;;;;;;5.80;3.30;;;13.80;99.90;13.80;100741.00;;;;4993657;28;87796;-66
2023/09/10 03:41:52;;;;;;;5.00;3.33;;;13.80;99.90;13.80;100741.00;;;;4991900;27;110583;-66
2023/09/10 03:44:18;;;;;;;6.23;4.47;;;13.80;99.90;13.80;100733.00;;;;4976752;28;88435;-66
2023/09/10 03:46:44;;;;;;;9.57;5.23;;;13.70;99.90;13.80;100740.00;;;;4990564;27;87900;-66
2023/09/10 03:49:10;;;;;;;6.03;4.23;;;13.70;99.90;13.70;100733.00;;;;4990445;27;108122;-66
2023/09/10 03:51:35;;;;;;;7.90;4.27;;;13.70;99.90;13.70;100737.00;;;;4992822;27;118009;-66
2023/09/10 03:54:01;;;;;;;5.93;4.10;;;13.70;99.90;13.70;100733.00;;;;4993629;28;112560;-66
2023/09/10 03:56:27;;;;;;;5.57;4.17;;;13.70;99.90;13.70;100734.00;;;;4991649;27;87563;-66
2023/09/10 03:58:52;;;;;;;6.50;4.20;;;13.70;99.90;13.60;100734.00;;;;4992226;27;108632;-66
2023/09/10 04:01:18;;;;;;;4.47;3.57;;;13.60;99.90;13.60;100726.00;;;;4989901;27;118146;-66
2023/09/10 04:03:44;;;;;;;5.70;4.67;;;13.60;99.90;13.50;100731.00;;;;4991761;27;119730;-66
2023/09/10 04:06:09;;;;;;;8.37;4.80;;;13.50;99.90;13.50;100727.00;;;;4992546;27;110344;-67
2023/09/10 04:08:35;;;;;;;4.47;3.27;;;13.60;99.90;13.50;100722.00;;;;4988081;27;107894;-67
2023/09/10 04:11:01;;;;;;;4.63;3.93;;;13.50;99.90;13.50;100733.00;;;;4991684;27;118228;-66
2023/09/10 04:13:26;;;;;;;5.77;4.30;;;13.70;99.90;13.50;100733.00;;;;4995575;27;109054;-68
2023/09/10 04:15:52;;;;;;;4.93;3.93;;;13.40;99.90;13.50;100733.00;;;;4994252;27;104814;-66
2023/09/10 04:18:18;;;;;;;5.30;4.67;;;13.50;99.90;13.50;100735.00;;;;4992067;27;108220;-66
2023/09/10 04:20:43;;;;;;;5.80;5.20;;;13.50;99.90;13.50;100739.00;;;;4991493;27;117097;-67
2023/09/10 04:23:09;;;;;;;6.17;4.27;;;13.40;99.90;13.40;100731.00;;;;4991517;27;117318;-66
2023/09/10 04:25:41;;;;;;;7.17;4.20;;;13.40;99.90;13.40;100732.00;;;;4988310;27;110666;-66
2023/09/10 04:28:06;;;;;;;6.77;4.47;;;13.40;99.90;13.40;100735.00;;;;4991285;27;88069;-67
2023/09/10 04:30:32;;;;;;;8.80;3.97;;;13.40;99.90;13.40;100732.00;;;;4991777;27;117479;-67
2023/09/10 04:32:58;;;;;;;6.60;5.03;;;13.30;99.90;13.30;100740.00;;;;4991603;28;89508;-67
2023/09/10 04:35:23;;;;;;;5.10;3.63;;;13.40;99.90;13.30;100736.00;;;;4989285;28;96201;-67
2023/09/10 04:37:49;;;;;;;5.07;4.30;;;13.30;99.90;13.30;100737.00;;;;4989874;27;106837;-66
2023/09/10 04:40:15;;;;;;;5.30;4.47;;;13.30;99.90;13.30;100742.00;;;;4989390;27;88572;-67
2023/09/10 04:42:40;;;;;;;4.33;3.93;;;13.30;99.90;13.30;100741.00;;;;4969158;28;113017;-66
2023/09/10 04:45:07;;;;;;;4.30;3.23;;;13.30;99.90;13.30;100745.00;;;;4989245;27;110366;-68
2023/09/10 04:47:32;;;;;;;3.97;3.57;;;13.30;99.90;13.40;100746.00;;;;4991378;27;96449;-67
2023/09/10 04:49:58;;;;;;;5.67;4.40;;;13.30;99.90;13.40;100749.00;;;;4987347;28;111129;-67
2023/09/10 04:52:24;;;;;;;6.20;4.27;;;13.30;99.90;13.40;100744.00;;;;4991284;27;89720;-67
2023/09/10 04:54:50;;;;;;;6.50;3.83;;;13.30;99.90;13.40;100749.00;;;;4989872;27;90832;-67
2023/09/10 04:57:16;;;;;;;8.63;5.33;;;13.40;99.90;13.40;100751.00;;;;4992848;28;109524;-66
2023/09/10 04:59:42;;;;;;;5.67;4.37;;;13.40;99.90;13.50;100752.00;;;;4989830;27;88266;-66
2023/09/10 05:02:08;;;;;;;7.07;3.83;;;13.40;99.90;13.50;100749.00;;;;4989777;27;90659;-66
2023/09/10 05:04:34;;;;;;;5.13;4.13;;;13.50;99.90;13.50;100756.00;;;;4989161;27;88410;-67
2023/09/10 05:07:05;;;;;;;4.13;3.60;;;13.50;99.90;13.60;100753.00;;;;4968606;28;109374;-65
2023/09/10 05:09:31;;;;;;;5.07;3.80;;;13.80;99.90;13.70;100755.00;;;;4990693;27;117854;-66
2023/09/10 05:11:57;;;;;;;6.77;4.63;;;13.60;99.90;13.80;100750.00;;;;4973415;28;117033;-66
2023/09/10 05:14:24;;;;;;;4.27;3.60;;;13.70;99.90;13.90;100757.00;;;;4990382;27;88801;-66
2023/09/10 05:16:50;;;;;;;10.13;4.00;;;13.80;99.90;14.10;100756.00;;;;4991770;27;93982;-65
2023/09/10 05:19:15;;;;;;;6.83;3.77;;;14.00;99.90;14.20;100762.00;;;;4991152;27;117358;-66
2023/09/10 05:21:41;;;;;;;5.63;4.23;;;14.10;99.90;14.40;100754.00;;;;4994132;27;118774;-66
2023/09/10 05:24:07;;;;;;;5.93;4.57;;;14.20;99.90;14.50;100761.00;;;;4994852;27;109007;-67
2023/09/10 05:26:33;;;;;;;6.28;3.72;;;14.40;99.90;14.70;100758.00;;;;4992692;28;108515;-65
2023/09/10 05:29:00;;;;;;;4.78;4.00;;;14.60;99.90;14.80;100758.00;;;;4996412;27;89276;-66
2023/09/10 05:31:26;;;;;;;4.85;4.25;;;14.70;99.90;15.00;100757.00;;;;4992284;27;100463;-66
2023/09/10 05:33:51;;;;;;;5.40;3.58;;;14.90;99.90;15.20;100761.00;;;;4993612;27;109345;-67
2023/09/10 05:36:17;;;;;;;5.03;4.45;;;15.00;99.90;15.30;100766.00;;;;4993362;27;87776;-67
2023/09/10 05:38:43;;;;;;;5.30;4.00;;;15.20;99.90;15.50;100771.00;;;;4990805;27;118227;-66
2023/09/10 05:41:08;;;;;;;5.15;4.07;;;15.40;99.90;15.70;100765.00;;;;4989773;27;116708;-66
2023/09/10 05:43:34;;;;;;;6.57;3.72;;;15.60;99.90;15.90;100771.00;;;;4991938;27;109833;-68
2023/09/10 05:46:00;;;;;;;4.68;3.33;;;15.80;99.90;16.20;100778.00;;;;4991455;27;109045;-67
2023/09/10 05:48:26;;;;;;;5.60;4.10;;;16.00;99.90;16.40;100781.00;;;;4991420;27;88316;-66
2023/09/10 05:50:58;;;;;;;4.72;4.03;;;16.20;99.90;16.60;100783.00;;;;4990814;27;96305;-66
2023/09/10 05:53:24;;;;;;;5.20;3.80;;;16.50;99.90;16.90;100782.00;;;;4992360;27;87760;-67
2023/09/10 05:55:50;;;;;;;4.85;3.05;;;16.70;99.90;17.10;100780.00;;;;4992171;27;87552;-67
2023/09/10 05:58:15;;;;;;;5.07;3.25;;;16.90;99.90;17.40;100785.00;;;;4988069;27;118644;-66
2023/09/10 06:00:41;;;;;;;6.25;3.53;;;17.20;99.90;17.70;100791.00;;;;4990499;27;87956;-66
2023/09/10 06:03:09;;;;;;;4.60;2.92;;;17.40;99.90;17.90;100794.00;;;;4987055;27;109273;-67
2023/09/10 06:05:53;;;;;;;3.92;3.33;;;17.70;99.90;18.30;100786.00;;;;4992862;27;88203;-67
2023/09/10 06:08:19;;;;;;;5.28;3.58;;;18.00;99.90;18.60;100794.00;;;;4972567;27;117878;-67
2023/09/10 06:10:45;;;;;;;3.55;2.85;;;18.30;99.90;18.90;100792.00;;;;4991883;27;87879;-66
2023/09/10 06:13:10;;;;;;;8.60;3.63;;;18.60;99.90;19.20;100797.00;;;;4991471;27;88290;-67
2023/09/10 06:15:38;;;;;;;3.63;3.25;;;18.90;99.90;19.50;100796.00;;;;4987868;27;108450;-67
2023/09/10 06:18:04;;;;;;;6.82;3.30;;;19.20;99.90;19.80;100802.00;;;;4968763;28;110304;-67
2023/09/10 06:20:30;;;;;;;3.72;2.45;;;19.50;99.90;20.10;100797.00;;;;4991117;27;117693;-67
2023/09/10 06:22:56;;;;;;;2.97;2.78;;;19.80;99.90;20.40;100802.00;;;;4986400;27;110812;-67
2023/09/10 06:25:23;;;;;;;5.97;3.58;;;20.10;99.90;20.70;100810.00;;;;4990294;27;88094;-66
2023/09/10 06:27:49;;;;;;;3.72;2.75;;;20.40;99.90;21.00;100813.00;;;;4989623;27;89905;-66
2023/09/10 06:30:15;;;;;;;4.53;3.05;;;20.70;99.90;21.30;100802.00;;;;4990305;27;110159;-67
2023/09/10 06:32:41;;;;;;;5.05;3.25;;;21.00;99.90;21.60;100802.00;;;;4973504;27;88060;-66
2023/09/10 06:35:07;;;;;;;5.10;3.72;;;21.30;99.90;21.80;100809.00;;;;4990108;27;108777;-66
2023/09/10 06:37:32;;;;;;;3.25;2.55;;;21.60;99.90;22.00;100808.00;;;;4988421;27;107560;-66
2023/09/10 06:39:58;;;;;;;2.88;2.60;;;21.80;99.90;22.30;100808.00;;;;4973149;28;117354;-66
2023/09/10 06:42:33;;;;;;;4.30;3.55;;;22.00;99.20;22.50;100812.00;;;;4960381;27;110128;-65
2023/09/10 06:44:58;;;;;;;5.03;2.85;;;22.20;98.70;22.70;100817.00;;;;4914013;28;112725;-66
2023/09/10 06:47:24;;;;;;;6.18;3.80;;;22.50;98.20;23.00;100816.00;;;;4837758;27;116648;-66
2023/09/10 06:49:50;;;;;;;4.20;3.38;;;22.70;97.70;23.20;100818.00;;;;4912470;27;89461;-66
2023/09/10 06:52:16;;;;;;;4.75;3.05;;;22.90;97.10;23.40;100814.00;;;;4986888;27;89228;-65
2023/09/10 06:54:41;;;;;;;7.07;4.03;;;23.20;96.30;23.60;100816.00;;;;4988786;27;105285;-65
2023/09/10 06:57:07;;;;;;;4.25;2.65;;;23.30;95.60;23.70;100817.00;;;;4990412;27;118127;-66
2023/09/10 06:59:35;;;;;;;3.63;3.15;;;23.60;95.30;23.90;100813.00;;;;4987620;27;118562;-65
2023/09/10 07:02:01;;;;;;;4.95;2.22;;;23.70;94.50;24.20;100818.00;;;;4993613;27;87953;-65
2023/09/10 07:04:26;;;;;;;4.53;2.88;;;24.80;94.40;24.40;100818.00;;;;4990598;27;96385;-66
2023/09/10 07:06:53;;;;;;;4.20;2.60;;;24.10;93.40;24.50;100825.00;;;;4987369;27;88679;-66
2023/09/10 07:09:22;;;;;;;2.78;2.42;;;24.30;92.70;24.80;100826.00;;;;4988022;27;99206;-65
2023/09/10 07:11:49;;;;;;;4.05;2.72;;;24.50;91.90;24.90;100827.00;;;;4991929;27;88182;-66
2023/09/10 07:14:14;;;;;;;3.55;2.60;;;24.70;91.40;25.10;100830.00;;;;4991636;27;88299;-65
2023/09/10 07:16:40;;;;;;;7.07;2.47;;;24.90;91.00;25.30;100818.00;;;;4986299;27;115572;-66
2023/09/10 07:19:06;;;;;;;2.88;2.35;;;25.00;89.60;25.40;100826.00;;;;4989898;27;88764;-65
2023/09/10 07:21:31;;;;;;;3.63;2.75;;;25.20;88.20;25.50;100827.00;;;;4986844;27;110528;-67
2023/09/10 07:23:57;;;;;;;7.50;2.33;;;25.30;87.70;25.70;100831.00;;;;4987856;27;107892;-66
2023/09/10 07:26:23;;;;;;;3.42;2.70;;;25.50;86.50;25.90;100834.00;;;;4988735;27;88663;-67
2023/09/10 07:28:49;;;;;;;2.45;2.10;;;25.60;84.90;26.00;100839.00;;;;4984835;27;117392;-66
2023/09/10 07:31:14;;;;;;;4.38;3.22;;;25.80;83.60;26.20;100839.00;;;;4990097;27;96774;-66
2023/09/10 07:33:40;;;;;;;4.50;2.45;;;26.00;83.00;26.40;100839.00;;;;4990977;27;89864;-67
2023/09/10 07:36:06;;;;;;;2.88;2.03;;;26.20;82.10;26.60;100843.00;;;;4989605;27;88935;-67
2023/09/10 07:38:31;;;;;;;3.13;2.30;;;26.40;80.90;26.90;100834.00;;;;4983675;27;92705;-67
2023/09/10 07:40:57;;;;;;;3.28;2.20;;;26.60;80.30;27.10;100837.00;;;;4986913;28;100083;-66
2023/09/10 07:43:23;;;;;;;5.38;3.40;;;26.80;78.90;27.30;100839.00;;;;4983520;27;109429;-65
2023/09/10 07:45:49;;;;;;;1.98;1.88;;;27.00;77.40;27.30;100843.00;;;;4986766;27;118033;-66
2023/09/10 07:48:15;;;;;;;3.30;2.67;;;27.20;74.40;27.30;100834.00;;;;4975738;27;93940;-67
2023/09/10 07:50:42;;;;;;;3.53;2.58;;;27.20;74.00;27.40;100829.00;;;;4985009;27;89204;-66
2023/09/10 07:53:07;;;;;;;3.70;3.00;;;27.20;73.50;27.60;100829.00;;;;4980385;28;98648;-67
2023/09/10 07:55:36;;;;;;;3.05;2.05;;;27.30;73.40;27.80;100831.00;;;;4977233;27;117139;-66
2023/09/10 07:58:02;;;;;;;3.63;2.63;;;27.60;72.70;28.10;100828.00;;;;4982900;27;88432;-66
2023/09/10 08:00:29;;;;;;;4.72;2.08;;;27.80;72.60;28.50;100827.00;;;;4986054;27;88053;-67
2023/09/10 08:02:55;;;;;;;2.90;2.33;;;28.20;71.70;28.70;100827.00;;;;4987532;27;88089;-66
2023/09/10 08:05:21;;;;;;;2.42;2.22;;;28.50;68.80;28.80;100829.00;;;;4984881;28;89791;-66
2023/09/10 08:07:46;;;;;;;3.65;2.08;;;28.60;68.00;28.90;100832.00;;;;4972586;27;119210;-66
2023/09/10 08:10:12;;;;;;;3.03;2.58;;;28.80;67.10;29.10;100834.00;;;;4980143;27;111329;-65
2023/09/10 08:12:41;;;;;;;3.63;2.25;;;28.90;66.30;29.30;100834.00;;;;4970956;27;105889;-67
2023/09/10 08:15:07;;;;;;;3.83;2.55;;;29.00;65.80;29.50;100835.00;;;;4986842;27;118032;-68
2023/09/10 08:17:35;;;;;;;3.25;2.05;;;29.20;64.90;29.70;100837.00;;;;4984629;27;108927;-68
2023/09/10 08:20:01;;;;;;;4.82;2.28;;;29.40;63.70;29.90;100843.00;;;;4985899;27;87843;-69
2023/09/10 08:22:26;;;;;;;3.33;2.30;;;29.60;63.20;30.10;100838.00;;;;4985401;27;108388;-68
2023/09/10 08:24:55;;;;;;;3.38;2.63;;;29.80;62.20;30.30;100847.00;;;;4984648;27;88827;-68
2023/09/10 08:27:20;;;;;;;3.60;2.33;;;30.00;60.80;30.40;100846.00;;;;4973533;27;88875;-67
2023/09/10 08:29:46;;;;;;;2.80;2.28;;;30.10;59.30;30.50;100848.00;;;;4980639;27;110554;-67
2023/09/10 08:32:12;;;;;;;2.88;2.35;;;30.20;59.30;30.60;100848.00;;;;4970709;27;87955;-66
2023/09/10 08:34:38;;;;;;;3.60;2.33;;;30.40;59.10;30.70;100852.00;;;;4981340;27;88287;-67
2023/09/10 08:37:05;;;;;;;2.83;2.42;;;30.50;58.20;30.80;100843.00;;;;4985171;27;115882;-68
2023/09/10 08:39:31;;;;;;;5.25;2.60;;;30.60;57.60;30.90;100848.00;;;;4982362;28;87820;-66
2023/09/10 08:42:40;;;;;;;3.40;1.90;;;30.60;57.30;31.00;100845.00;;;;4987550;27;89515;-67
2023/09/10 08:45:08;;;;;;;5.20;2.35;;;30.80;57.00;31.40;100844.00;;;;4980098;27;115277;-69
2023/09/10 08:47:39;;;;;;;5.63;2.90;;;31.00;56.60;31.70;100845.00;;;;4969285;27;91982;-68
2023/09/10 08:50:11;;;;;;;1.67;1.38;;;31.30;55.70;31.90;100849.00;;;;4982813;27;90141;-69
2023/09/10 08:52:39;;;;;;;3.35;1.75;;;31.60;54.70;32.10;100838.00;;;;4973110;27;89493;-69
2023/09/10 08:55:15;;;;;;;5.50;2.65;;;31.70;54.40;32.30;100845.00;;;;4976587;27;89418;-68
2023/09/10 08:57:42;;;;;;;3.33;2.40;;;32.00;53.80;32.50;100844.00;;;;4977955;27;117816;-68
2023/09/10 09:00:13;;;;;;;3.85;2.22;;;32.10;53.30;32.60;100837.00;;;;4986190;27;88125;-67
2023/09/10 09:02:44;;;;;;;5.10;1.88;;;32.20;53.20;32.90;100831.00;;;;4973202;27;87940;-70
2023/09/10 09:05:11;;;;;;;2.92;1.85;;;32.40;53.00;33.20;100843.00;;;;4981284;27;90764;-69
2023/09/10 09:07:54;;;;;;;2.42;1.83;;;32.70;52.90;33.50;100845.00;;;;4987431;27;88450;-67
2023/09/10 09:10:25;;;;;;;3.40;2.00;;;33.00;52.30;33.80;100844.00;;;;4988136;27;88044;-68
2023/09/10 09:12:57;;;;;;;2.80;2.15;;;33.30;51.80;34.10;100849.00;;;;4950610;27;87521;-68
2023/09/10 09:15:25;;;;;;;2.85;2.10;;;33.50;51.30;34.30;100848.00;;;;4918126;27;107946;-70
2023/09/10 09:17:51;;;;;;;5.40;2.08;;;33.80;50.30;34.50;100846.00;;;;4886538;27;92207;-70
2023/09/10 09:20:19;;;;;;;3.45;1.45;;;34.00;50.30;34.90;100845.00;;;;4975895;27;97655;-70
2023/09/10 09:22:51;;;;;;;3.63;2.08;;;34.30;49.30;35.00;100850.00;;;;4989213;27;87763;-69
2023/09/10 09:25:18;;;;;;;4.07;2.83;;;34.50;48.40;35.20;100852.00;;;;4981279;27;87964;-69
2023/09/10 09:27:45;;;;;;;1.45;1.35;;;34.70;48.10;35.50;100853.00;;;;4950754;28;116838;-68
2023/09/10 09:30:11;;;;;;;2.05;1.35;;;34.90;47.60;35.70;100849.00;;;;4967441;28;110068;-70
2023/09/10 09:32:37;;;;;;;2.40;2.20;;;35.10;47.00;35.80;100849.00;;;;4983138;27;102189;-70
2023/09/10 09:35:04;;;;;;;4.30;1.65;;;35.30;46.60;35.90;100849.00;;;;4986847;27;89938;-69
2023/09/10 09:37:32;;;;;;;2.35;1.75;;;35.40;46.40;36.10;100852.00;;;;4977167;27;94766;-71
2023/09/10 09:40:01;;;;;;;3.38;1.50;;;35.50;46.30;36.30;100853.00;;;;4986539;27;88739;-68
2023/09/10 09:42:27;;;;;;;3.13;1.63;;;35.60;45.60;36.40;100845.00;;;;4985397;28;88145;-69
2023/09/10 09:44:54;;;;;;;2.42;1.77;;;35.80;45.10;36.60;100846.00;;;;4977184;27;90114;-68
2023/09/10 09:47:20;;;;;;;3.15;2.13;;;35.90;44.30;36.70;100836.00;;;;4987134;28;88092;-67
2023/09/10 09:49:48;;;;;;;3.38;2.38;;;36.00;44.40;36.80;100844.00;;;;4986889;27;110638;-70
2023/09/10 09:52:16;;;;;;;2.42;1.67;;;36.10;43.90;37.00;100844.00;;;;4986652;27;87920;-68
2023/09/10 09:54:41;;;;;;;2.67;1.48;;;36.20;42.60;37.00;100851.00;;;;4986492;27;113144;-68
2023/09/10 09:57:08;;;;;;;2.53;2.13;;;36.30;42.00;37.20;100833.00;;;;4985093;27;113556;-68
2023/09/10 09:59:36;;;;;;;2.97;1.58;;;36.40;41.80;37.40;100846.00;;;;4987648;27;89135;-69
2023/09/10 10:02:02;;;;;;;4.35;1.80;;;36.60;41.70;37.70;100849.00;;;;4982719;27;87109;-68
2023/09/10 10:04:32;;;;;;;1.83;1.42;;;36.80;41.50;37.80;100851.00;;;;4984984;27;102187;-70
2023/09/10 10:06:57;;;;;;;3.22;1.48;;;37.00;41.40;38.00;100846.00;;;;4968838;28;88633;-68
2023/09/10 10:09:24;;;;;;;2.05;1.80;;;37.10;41.20;38.20;100847.00;;;;4984575;28;105028;-68
2023/09/10 10:11:50;;;;;;;2.03;1.65;;;37.30;40.70;38.40;100838.00;;;;4964275;28;100802;-69
2023/09/10 10:14:18;;;;;;;2.20;1.25;;;37.40;40.30;38.50;100844.00;;;;4965011;27;117948;-69
2023/09/10 10:16:45;;;;;;;2.47;1.67;;;37.70;39.60;38.60;100835.00;;;;4965302;28;117258;-69
2023/09/10 10:19:11;;;;;;;1.30;1.13;;;37.80;39.00;38.70;100831.00;;;;4985218;27;110760;-70
2023/09/10 10:21:37;;;;;;;2.53;1.60;;;37.80;38.60;38.80;100844.00;;;;4969961;28;107468;-69
2023/09/10 10:24:03;;;;;;;2.63;1.92;;;37.90;38.30;39.00;100828.00;;;;4964169;28;117897;-69
2023/09/10 10:26:30;;;;;;;2.05;1.48;;;38.10;38.00;39.10;100833.00;;;;4953573;28;88116;-70
2023/09/10 10:28:57;;;;;;;2.30;1.25;;;38.30;37.90;39.30;100831.00;;;;4982299;27;88037;-68
2023/09/10 10:31:29;;;;;;;2.88;1.33;;;38.40;37.60;39.50;100839.00;;;;4967040;28;108575;-69
2023/09/10 10:34:03;;;;;;;2.55;1.60;;;38.60;37.30;39.60;100821.00;;;;4950551;27;90510;-69
2023/09/10 10:36:58;;;;;;;2.20;1.58;;;38.80;37.00;39.90;100824.00;;;;4990168;27;88888;-70
2023/09/10 10:39:38;;;;;;;1.50;1.40;;;39.00;36.60;40.10;100825.00;;;;4971803;28;88094;-70
2023/09/10 10:42:08;;;;;;;2.75;1.20;;;39.20;35.70;40.10;100828.00;;;;4972503;28;88003;-68
2023/09/10 10:44:35;;;;;;;1.77;1.35;;;39.30;35.10;40.20;100824.00;;;;4978333;27;88253;-69